Time;durP1;ratioP1;P1;durP2;ratioP2;P2;SDS_P1;SDS_P2;PMS_P1;PMS_P2;Temp;Humidity;BMP_temperature;BMP_pressure;BME280_temperature;BME280_humidity;BME280_pressure;Samples;Min_cycle;Max_cycle;Signal;HPM_P1;HPM_P2
2023/03/10 00:00:17;;;;;;;14.57;8.02;;;;;;;10.44;100.00;99546.75;5058671;28;20193;-74
2023/03/10 00:02:48;;;;;;;13.38;8.60;;;;;;;10.36;100.00;99549.38;5050177;28;20029;-74
2023/03/10 00:05:15;;;;;;;16.88;8.85;;;;;;;10.18;100.00;99542.53;5043760;28;20029;-74
2023/03/10 00:07:41;;;;;;;13.63;8.60;;;;;;;10.04;100.00;99545.78;5033246;28;20057;-74
2023/03/10 00:10:09;;;;;;;17.98;11.35;;;;;;;9.92;100.00;99536.69;5040261;28;20075;-74
2023/03/10 00:12:34;;;;;;;18.98;11.45;;;;;;;9.84;100.00;99539.31;5050087;28;20036;-74
2023/03/10 00:15:00;;;;;;;23.48;12.18;;;;;;;9.78;100.00;99538.16;5067993;28;20033;-74
2023/03/10 00:17:25;;;;;;;26.88;15.05;;;;;;;9.73;100.00;99537.00;5063670;28;20850;-74
2023/03/10 00:19:50;;;;;;;22.77;14.65;;;;;;;9.60;100.00;99538.28;5055281;28;20067;-74
2023/03/10 00:22:16;;;;;;;28.90;16.77;;;;;;;9.52;100.00;99535.69;5053015;28;20425;-74
2023/03/10 00:24:41;;;;;;;29.08;17.38;;;;;;;9.52;100.00;99527.88;5057588;28;20538;-74
2023/03/10 00:27:07;;;;;;;27.52;17.75;;;;;;;9.55;100.00;99530.16;5052573;28;20039;-74
2023/03/10 00:29:32;;;;;;;31.00;16.83;;;;;;;9.54;100.00;99531.13;5060848;28;20472;-74
2023/03/10 00:31:57;;;;;;;25.17;15.65;;;;;;;9.50;100.00;99531.59;5052345;28;20052;-73
2023/03/10 00:34:23;;;;;;;26.88;17.00;;;;;;;9.45;100.00;99520.91;5047538;28;20426;-74
2023/03/10 00:36:48;;;;;;;30.92;17.55;;;;;;;9.40;100.00;99523.97;5046467;28;20033;-74
2023/03/10 00:39:14;;;;;;;26.58;16.05;;;;;;;9.34;100.00;99522.00;5051888;28;20029;-74
2023/03/10 00:41:39;;;;;;;23.50;15.25;;;;;;;9.30;100.00;99521.50;5044696;28;20476;-74
2023/03/10 00:44:06;;;;;;;24.13;15.48;;;;;;;9.26;100.00;99516.78;5035007;28;20455;-74
2023/03/10 00:46:33;;;;;;;25.60;13.88;;;;;;;9.33;100.00;99512.59;5057177;28;20437;-74
2023/03/10 00:48:58;;;;;;;22.23;13.63;;;;;;;9.38;100.00;99507.72;5065972;28;20476;-74
2023/03/10 00:51:24;;;;;;;23.17;11.10;;;;;;;9.40;100.00;99503.19;5049726;28;20033;-74
2023/03/10 00:53:49;;;;;;;21.65;12.73;;;;;;;9.54;100.00;99494.72;5046892;28;20032;-74
2023/03/10 00:56:20;;;;;;;21.55;14.35;;;;;;;9.40;100.00;99490.19;5049495;28;20084;-74
2023/03/10 00:58:49;;;;;;;20.60;12.82;;;;;;;9.23;100.00;99484.13;5048933;28;20531;-74
2023/03/10 01:01:18;;;;;;;23.15;11.25;;;;;;;9.16;100.00;99472.75;5053839;28;20039;-74
2023/03/10 01:03:44;;;;;;;23.08;11.27;;;;;;;9.21;100.00;99467.06;5055962;28;20091;-74
2023/03/10 01:06:10;;;;;;;15.98;9.43;;;;;;;9.42;100.00;99469.22;5052501;28;20439;-74
2023/03/10 01:08:36;;;;;;;13.52;8.15;;;;;;;9.56;100.00;99458.97;5048552;28;20520;-74
2023/03/10 01:11:01;;;;;;;13.00;7.60;;;;;;;9.50;100.00;99454.41;5053058;28;20033;-74
2023/03/10 01:13:27;;;;;;;17.08;7.93;;;;;;;9.53;100.00;99450.69;5051535;28;20039;-74
2023/03/10 01:15:52;;;;;;;13.85;8.20;;;;;;;9.53;100.00;99448.06;5046510;28;20160;-74
2023/03/10 01:18:19;;;;;;;15.55;8.10;;;;;;;9.48;100.00;99445.97;5071893;28;20067;-74
2023/03/10 01:20:45;;;;;;;15.52;8.30;;;;;;;9.44;100.00;99449.88;5050613;28;20499;-74
2023/03/10 01:23:18;;;;;;;15.93;7.63;;;;;;;9.41;100.00;99444.19;5053195;28;20037;-74
2023/03/10 01:25:44;;;;;;;19.83;8.88;;;;;;;9.39;100.00;99439.16;5051838;28;20083;-74
2023/03/10 01:28:10;;;;;;;12.48;6.82;;;;;;;9.56;100.00;99432.16;5055423;28;20414;-74
2023/03/10 01:30:35;;;;;;;17.38;7.18;;;;;;;9.59;100.00;99434.44;5046025;28;20064;-74
2023/03/10 01:33:01;;;;;;;13.85;7.40;;;;;;;9.52;100.00;99426.47;5066557;28;20078;-74
2023/03/10 01:35:29;;;;;;;15.60;7.18;;;;;;;9.59;100.00;99427.44;5047179;28;20036;-74
2023/03/10 01:37:54;;;;;;;13.32;6.75;;;;;;;9.59;100.00;99416.22;5047878;28;20029;-74
2023/03/10 01:40:19;;;;;;;16.95;10.50;;;;;;;9.54;100.00;99408.09;5047305;28;20043;-74
2023/03/10 01:42:45;;;;;;;11.75;8.25;;;;;;;9.35;100.00;99405.84;5067032;28;20094;-74
2023/03/10 01:45:13;;;;;;;12.65;7.55;;;;;;;9.25;100.00;99409.41;5053960;28;20091;-74
2023/03/10 01:47:39;;;;;;;12.70;7.60;;;;;;;9.08;100.00;99405.16;5048730;28;20374;-74
2023/03/10 01:50:09;;;;;;;17.60;9.73;;;;;;;8.89;100.00;99403.69;5057188;28;20032;-74
2023/03/10 01:52:35;;;;;;;13.68;7.88;;;;;;;8.83;100.00;99401.72;5046423;28;20135;-74
2023/03/10 01:55:10;;;;;;;12.07;7.30;;;;;;;9.03;100.00;99394.44;5043945;28;20025;-75
2023/03/10 01:57:40;;;;;;;12.77;8.75;;;;;;;8.88;100.00;99383.88;5050415;28;20041;-74
2023/03/10 02:00:15;;;;;;;13.90;8.57;;;;;;;8.68;100.00;99385.13;5054999;28;20466;-74
2023/03/10 02:02:51;;;;;;;16.13;7.73;;;;;;;8.59;100.00;99376.50;5062498;28;20071;-74
2023/03/10 02:05:18;;;;;;;15.20;7.80;;;;;;;8.66;100.00;99366.28;5033503;28;20292;-74
2023/03/10 02:07:44;;;;;;;16.00;8.38;;;;;;;8.88;100.00;99362.28;5043619;28;20557;-74
2023/03/10 02:10:12;;;;;;;23.45;8.70;;;;;;;9.04;100.00;99357.09;5053661;28;20123;-74
2023/03/10 02:12:37;;;;;;;16.58;8.48;;;;;;;9.14;100.00;99354.34;5058955;28;20370;-74
2023/03/10 02:15:03;;;;;;;22.10;9.13;;;;;;;9.08;100.00;99355.78;5047859;28;20040;-74
2023/03/10 02:17:29;;;;;;;12.20;6.82;;;;;;;9.07;100.00;99348.16;5040577;28;20044;-74
2023/03/10 02:20:08;;;;;;;14.70;7.60;;;;;;;9.07;100.00;99342.97;5054048;28;20040;-74
2023/03/10 02:22:34;;;;;;;14.27;6.95;;;;;;;9.18;100.00;99353.03;5048013;28;20068;-74
2023/03/10 02:25:30;;;;;;;17.52;6.93;;;;;;;9.19;100.00;99346.88;5057260;28;20037;-75
2023/03/10 02:27:57;;;;;;;16.05;6.93;;;;;;;9.20;100.00;99351.91;5058404;28;20476;-74
2023/03/10 02:30:28;;;;;;;14.38;6.90;;;;;;;9.26;100.00;99340.88;5044572;28;20519;-74
2023/03/10 02:33:01;;;;;;;20.63;7.40;;;;;;;9.25;100.00;99333.22;5046489;28;20464;-74
2023/03/10 02:35:27;;;;;;;17.40;6.00;;;;;;;9.31;100.00;99335.19;5050586;28;20106;-74
2023/03/10 02:37:53;;;;;;;15.95;7.13;;;;;;;9.22;100.00;99320.56;5050911;28;20028;-74
2023/03/10 02:40:36;;;;;;;14.70;6.53;;;;;;;9.13;100.00;99314.53;5053898;28;20037;-74
2023/03/10 02:43:07;;;;;;;13.13;6.10;;;;;;;9.13;100.00;99322.34;5059505;28;20028;-74
2023/03/10 02:45:36;;;;;;;10.90;5.63;;;;;;;9.12;100.00;99309.50;5064369;28;20478;-73
2023/03/10 02:48:01;;;;;;;16.27;6.38;;;;;;;9.07;100.00;99307.41;5037265;28;20041;-74
2023/03/10 02:50:33;;;;;;;13.27;4.78;;;;;;;9.04;100.00;99302.53;5050457;28;20501;-74
2023/03/10 02:53:11;;;;;;;13.32;5.88;;;;;;;8.99;100.00;99303.00;5045387;28;20072;-74
2023/03/10 02:55:36;;;;;;;13.90;5.45;;;;;;;8.88;100.00;99300.75;5049852;28;20037;-74
2023/03/10 02:58:02;;;;;;;12.45;5.43;;;;;;;8.69;100.00;99295.88;5045026;28;20056;-74
2023/03/10 03:00:28;;;;;;;9.23;5.68;;;;;;;8.49;100.00;99302.34;5059437;28;20036;-74
2023/03/10 03:02:54;;;;;;;12.43;5.28;;;;;;;8.35;100.00;99302.94;5051152;28;20033;-74
2023/03/10 03:05:19;;;;;;;9.93;5.05;;;;;;;8.53;100.00;99290.63;5049993;28;20035;-74
2023/03/10 03:07:44;;;;;;;14.23;5.88;;;;;;;8.52;100.00;99291.59;5049631;28;20037;-74
2023/03/10 03:10:11;;;;;;;13.25;6.20;;;;;;;8.62;100.00;99281.91;5036561;28;20029;-74
2023/03/10 03:12:36;;;;;;;16.08;6.28;;;;;;;8.72;100.00;99281.75;5052934;28;20044;-74
2023/03/10 03:15:02;;;;;;;13.90;7.05;;;;;;;8.79;100.00;99277.53;5047419;28;20439;-74
2023/03/10 03:17:27;;;;;;;13.80;6.57;;;;;;;8.79;100.00;99280.94;5051282;28;20110;-74
2023/03/10 03:19:53;;;;;;;13.73;7.32;;;;;;;8.88;100.00;99268.78;5054446;28;20057;-74
2023/03/10 03:22:18;;;;;;;16.65;7.20;;;;;;;8.96;100.00;99272.19;5056848;28;20357;-74
2023/03/10 03:24:44;;;;;;;14.55;7.93;;;;;;;9.03;100.00;99269.72;5045273;28;20492;-74
2023/03/10 03:27:09;;;;;;;16.40;7.68;;;;;;;9.10;100.00;99262.09;5052166;28;20041;-74
2023/03/10 03:29:35;;;;;;;11.43;6.25;;;;;;;9.19;100.00;99268.91;5045956;28;20473;-74
2023/03/10 03:32:00;;;;;;;13.98;6.03;;;;;;;9.23;100.00;99259.81;5055839;28;20390;-74
2023/03/10 03:34:26;;;;;;;16.40;6.25;;;;;;;9.25;100.00;99252.66;5050572;28;20147;-75
2023/03/10 03:36:51;;;;;;;19.40;7.30;;;;;;;9.23;100.00;99252.81;5050121;28;20119;-74
2023/03/10 03:39:17;;;;;;;15.70;7.05;;;;;;;9.23;100.00;99250.22;5046455;28;20032;-74
2023/03/10 03:41:43;;;;;;;19.70;7.43;;;;;;;9.24;100.00;99246.66;5048737;28;20116;-74
2023/03/10 03:44:08;;;;;;;17.83;6.95;;;;;;;9.32;100.00;99243.22;5050860;28;20492;-74
2023/03/10 03:46:34;;;;;;;14.25;6.30;;;;;;;9.31;100.00;99242.41;5043242;28;20035;-74
2023/03/10 03:49:00;;;;;;;13.57;7.07;;;;;;;9.32;100.00;99248.41;5048434;28;20040;-74
2023/03/10 03:51:26;;;;;;;12.20;6.78;;;;;;;9.29;100.00;99235.75;5054781;28;20128;-74
2023/03/10 03:53:52;;;;;;;12.45;6.95;;;;;;;9.28;100.00;99237.53;5045616;28;20082;-74
2023/03/10 03:56:17;;;;;;;10.13;6.05;;;;;;;9.25;100.00;99239.66;5046820;28;20048;-74
2023/03/10 03:58:43;;;;;;;13.30;6.15;;;;;;;9.19;100.00;99233.34;5055288;28;20188;-74
2023/03/10 04:01:08;;;;;;;11.63;4.80;;;;;;;9.19;100.00;99225.53;5048546;28;20126;-74
2023/03/10 04:03:34;;;;;;;13.68;5.53;;;;;;;9.19;100.00;99232.53;5046382;28;20481;-74
2023/03/10 04:05:59;;;;;;;14.65;5.55;;;;;;;9.19;100.00;99232.53;5047943;28;20137;-74
2023/03/10 04:08:25;;;;;;;16.15;5.88;;;;;;;9.21;100.00;99230.56;5057096;28;20094;-74
2023/03/10 04:10:53;;;;;;;11.88;5.15;;;;;;;9.22;100.00;99237.41;5053421;28;20036;-74
2023/03/10 04:13:18;;;;;;;13.25;5.05;;;;;;;9.14;100.00;99234.81;5053453;28;20452;-74
2023/03/10 04:15:44;;;;;;;14.95;5.00;;;;;;;8.99;100.00;99238.06;5045941;28;20049;-75
2023/03/10 04:18:09;;;;;;;12.70;5.10;;;;;;;8.92;100.00;99224.13;5059869;28;20447;-74
2023/03/10 04:20:35;;;;;;;9.75;4.55;;;;;;;8.78;100.00;99214.41;5068570;28;20048;-74
2023/03/10 04:23:01;;;;;;;12.98;6.03;;;;;;;8.76;100.00;99205.94;5054176;28;20480;-74
2023/03/10 04:25:27;;;;;;;15.88;6.43;;;;;;;8.87;100.00;99210.00;5047204;28;20167;-74
2023/03/10 04:27:52;;;;;;;16.33;7.45;;;;;;;8.93;100.00;99192.00;5051189;28;20123;-74
2023/03/10 04:30:18;;;;;;;15.07;7.70;;;;;;;9.01;100.00;99203.31;5056888;28;20032;-74
2023/03/10 04:32:43;;;;;;;15.20;7.15;;;;;;;9.01;100.00;99204.13;5059705;28;20170;-74
2023/03/10 04:35:12;;;;;;;18.05;8.90;;;;;;;9.04;100.00;99197.78;5053038;28;20056;-74
2023/03/10 04:37:37;;;;;;;20.73;7.18;;;;;;;8.94;100.00;99188.41;5049133;28;20037;-74
2023/03/10 04:40:08;;;;;;;13.40;5.53;;;;;;;9.07;100.00;99189.66;5051844;28;20090;-74
2023/03/10 04:42:35;;;;;;;10.50;4.03;;;;;;;9.08;100.00;99184.31;5051637;28;20504;-74
2023/03/10 04:45:01;;;;;;;14.30;4.15;;;;;;;9.05;100.00;99173.44;5060795;28;20551;-74
2023/03/10 04:47:26;;;;;;;9.88;3.42;;;;;;;8.98;100.00;99184.47;5067646;28;20040;-74
2023/03/10 04:49:52;;;;;;;9.20;3.58;;;;;;;8.99;100.00;99180.09;5064821;28;20048;-74
2023/03/10 04:52:17;;;;;;;12.57;3.75;;;;;;;8.91;100.00;99173.16;5035951;28;20028;-74
2023/03/10 04:54:43;;;;;;;10.68;3.22;;;;;;;8.81;100.00;99180.31;5056117;28;20052;-74
2023/03/10 04:57:08;;;;;;;10.15;4.03;;;;;;;8.75;100.00;99178.38;5058683;28;20064;-74
2023/03/10 04:59:34;;;;;;;15.65;5.95;;;;;;;8.74;100.00;99175.94;5048081;28;20461;-74
2023/03/10 05:01:59;;;;;;;11.70;4.20;;;;;;;8.68;100.00;99177.38;5047498;28;20455;-75
2023/03/10 05:04:25;;;;;;;13.80;5.40;;;;;;;8.60;100.00;99173.00;5052662;28;20082;-74
2023/03/10 05:06:51;;;;;;;14.10;5.15;;;;;;;8.47;100.00;99170.13;5064338;28;20033;-74
2023/03/10 05:09:17;;;;;;;16.05;5.82;;;;;;;8.34;100.00;99162.00;5058489;28;20036;-74
2023/03/10 05:11:43;;;;;;;9.68;4.88;;;;;;;8.30;100.00;99153.69;5056471;28;20370;-74
2023/03/10 05:14:11;;;;;;;10.50;5.13;;;;;;;8.23;100.00;99157.91;5054005;28;20044;-74
2023/03/10 05:16:36;;;;;;;12.45;4.80;;;;;;;8.17;100.00;99161.13;5049431;28;20026;-74
2023/03/10 05:19:02;;;;;;;13.13;4.97;;;;;;;8.13;100.00;99161.59;5060124;28;24395;-74
2023/03/10 05:21:27;;;;;;;8.50;4.75;;;;;;;8.09;100.00;99155.13;5046344;28;20072;-74
2023/03/10 05:23:53;;;;;;;11.20;5.20;;;;;;;8.07;100.00;99154.47;5049574;28;20372;-74
2023/03/10 05:26:18;;;;;;;11.05;5.13;;;;;;;8.01;100.00;99142.97;5058673;28;20086;-73
2023/03/10 05:28:44;;;;;;;17.10;6.00;;;;;;;7.97;100.00;99139.06;5053757;28;20029;-74
2023/03/10 05:31:13;;;;;;;9.50;5.60;;;;;;;8.05;100.00;99140.84;5049273;28;20028;-74
2023/03/10 05:33:39;;;;;;;13.27;6.03;;;;;;;8.12;100.00;99142.63;5058069;28;20392;-74
2023/03/10 05:36:09;;;;;;;16.00;5.63;;;;;;;8.19;100.00;99150.59;5042044;28;20124;-73
2023/03/10 05:38:35;;;;;;;13.73;5.88;;;;;;;8.23;100.00;99137.13;5046565;28;20025;-74
2023/03/10 05:41:04;;;;;;;14.60;5.55;;;;;;;8.27;100.00;99137.63;5051087;28;20032;-74
2023/03/10 05:43:30;;;;;;;10.65;4.38;;;;;;;8.44;100.00;99135.88;5061328;28;20029;-74
2023/03/10 05:45:57;;;;;;;18.05;5.60;;;;;;;8.60;100.00;99128.88;5059230;28;20040;-74
2023/03/10 05:48:23;;;;;;;11.68;4.35;;;;;;;8.68;100.00;99128.06;5063383;28;20029;-74
2023/03/10 05:51:10;;;;;;;11.38;5.15;;;;;;;8.71;100.00;99119.94;5022287;28;20476;-74
2023/03/10 05:53:36;;;;;;;15.60;5.13;;;;;;;8.91;100.00;99123.81;5043898;28;20033;-74
2023/03/10 05:56:08;;;;;;;9.68;4.30;;;;;;;9.01;100.00;99127.97;5045920;28;20162;-74
2023/03/10 05:58:34;;;;;;;14.75;4.82;;;;;;;9.07;100.00;99120.31;5040198;28;20453;-74
2023/03/10 06:00:59;;;;;;;13.93;5.00;;;;;;;9.19;100.00;99115.59;5044395;28;20436;-74
2023/03/10 06:03:27;;;;;;;13.30;5.88;;;;;;;9.25;100.00;99102.72;5044574;28;20120;-74
2023/03/10 06:05:52;;;;;;;17.65;5.25;;;;;;;9.34;100.00;99100.91;5049123;28;20025;-74
2023/03/10 06:08:18;;;;;;;14.23;5.35;;;;;;;9.38;100.00;99094.41;5049308;28;20471;-74
2023/03/10 06:10:43;;;;;;;20.88;5.97;;;;;;;9.38;100.00;99094.41;5050018;28;20039;-74
2023/03/10 06:13:09;;;;;;;14.82;6.70;;;;;;;9.48;100.00;99094.16;5031726;28;20130;-74
2023/03/10 06:15:34;;;;;;;13.77;4.22;;;;;;;9.55;100.00;99097.69;5042466;28;20029;-74
2023/03/10 06:18:00;;;;;;;9.48;3.58;;;;;;;9.62;100.00;99089.03;5052938;28;20495;-74
2023/03/10 06:20:26;;;;;;;13.73;4.32;;;;;;;9.70;100.00;99077.78;5038843;28;20045;-74
2023/03/10 06:22:52;;;;;;;11.80;5.50;;;;;;;9.70;100.00;99069.19;5036839;28;20434;-74
2023/03/10 06:25:18;;;;;;;11.98;4.50;;;;;;;9.73;100.00;99069.66;5057890;28;20021;-72
2023/03/10 06:27:43;;;;;;;11.57;4.70;;;;;;;9.76;100.00;99065.88;5047846;28;20033;-74
2023/03/10 06:30:10;;;;;;;17.40;5.60;;;;;;;9.74;100.00;99055.66;5060430;28;20035;-74
2023/03/10 06:32:35;;;;;;;12.77;4.22;;;;;;;9.74;100.00;99053.06;5045522;28;20035;-74
2023/03/10 06:35:01;;;;;;;15.35;4.28;;;;;;;9.76;100.00;99055.47;5041925;28;20029;-74
2023/03/10 06:37:26;;;;;;;10.73;4.32;;;;;;;9.83;100.00;99049.41;5048460;28;20086;-74
2023/03/10 06:39:52;;;;;;;20.60;5.30;;;;;;;9.85;100.00;99042.25;5048814;28;20048;-75
2023/03/10 06:42:18;;;;;;;15.32;4.78;;;;;;;9.92;100.00;99047.56;5049788;28;20499;-75
2023/03/10 06:44:43;;;;;;;13.00;4.50;;;;;;;9.96;100.00;99048.81;5041893;28;20429;-74
2023/03/10 06:47:08;;;;;;;14.32;5.53;;;;;;;9.99;100.00;99043.25;5049886;28;20111;-74
2023/03/10 06:49:34;;;;;;;16.30;5.38;;;;;;;9.96;100.00;99046.22;5048686;28;20044;-73
2023/03/10 06:52:00;;;;;;;16.23;6.30;;;;;;;9.88;100.00;99035.91;5055795;28;20524;-73
2023/03/10 06:54:25;;;;;;;21.88;6.10;;;;;;;9.92;100.00;99032.75;5049676;28;20041;-73
2023/03/10 06:56:51;;;;;;;13.63;5.55;;;;;;;9.88;100.00;99033.28;5048748;28;20468;-73
2023/03/10 06:59:17;;;;;;;17.10;5.45;;;;;;;9.86;100.00;99041.28;5049717;28;20115;-73
2023/03/10 07:01:43;;;;;;;13.18;5.82;;;;;;;9.89;100.00;99040.13;5029530;28;20111;-73
2023/03/10 07:04:11;;;;;;;16.63;5.90;;;;;;;10.14;100.00;99036.31;5046078;28;20055;-72
2023/03/10 07:06:37;;;;;;;16.90;6.60;;;;;;;10.87;100.00;99032.97;5046181;28;20029;-73
2023/03/10 07:09:03;;;;;;;11.63;5.30;;;;;;;11.58;100.00;99044.41;5049678;28;20071;-73
2023/03/10 07:11:29;;;;;;;13.50;5.10;;;;;;;12.24;100.00;99042.44;5028895;28;20029;-73
2023/03/10 07:13:54;;;;;;;10.88;5.22;;;;;;;11.75;100.00;99041.56;5046314;28;20025;-72
2023/03/10 07:16:20;;;;;;;15.10;5.50;;;;;;;11.27;100.00;99043.88;5027019;28;20037;-72
2023/03/10 07:18:46;;;;;;;18.95;6.72;;;;;;;10.96;100.00;99042.31;5044935;28;20040;-72
2023/03/10 07:21:16;;;;;;;12.43;5.25;;;;;;;10.75;100.00;99044.84;5046391;28;20029;-73
2023/03/10 07:23:41;;;;;;;15.20;5.47;;;;;;;10.65;100.00;99041.69;5047386;28;20033;-74
2023/03/10 07:26:07;;;;;;;31.15;7.93;;;;;;;10.68;100.00;99037.94;5038854;28;20059;-73
2023/03/10 07:28:36;;;;;;;12.77;5.13;;;;;;;10.73;100.00;99035.59;5061816;28;20039;-73
2023/03/10 07:31:04;;;;;;;22.48;6.63;;;;;;;10.82;100.00;99026.69;5061360;28;20032;-73
2023/03/10 07:33:29;;;;;;;15.88;5.72;;;;;;;10.92;100.00;99028.00;5041478;28;20440;-73
2023/03/10 07:35:55;;;;;;;16.80;5.88;;;;;;;11.05;100.00;99024.78;5049927;28;20028;-72
2023/03/10 07:38:20;;;;;;;11.25;4.65;;;;;;;11.14;100.00;99015.06;5031413;28;20123;-72
2023/03/10 07:40:46;;;;;;;13.93;4.88;;;;;;;11.18;100.00;99016.31;5040056;28;20132;-71
2023/03/10 07:43:11;;;;;;;14.35;4.68;;;;;;;11.19;100.00;99021.34;5053742;28;20032;-74
2023/03/10 07:45:37;;;;;;;11.23;4.72;;;;;;;11.30;100.00;99017.44;5030308;28;20503;-74
2023/03/10 07:48:03;;;;;;;17.15;4.00;;;;;;;11.43;100.00;99011.53;5027802;28;20045;-74
2023/03/10 07:50:28;;;;;;;11.68;4.35;;;;;;;11.60;100.00;99012.94;5046310;28;20044;-74
2023/03/10 07:52:55;;;;;;;11.55;4.32;;;;;;;11.81;100.00;99010.34;5042212;28;20051;-74
2023/03/10 07:55:21;;;;;;;14.00;3.70;;;;;;;11.96;100.00;99005.03;5062094;28;20044;-74
2023/03/10 07:57:46;;;;;;;15.85;3.17;;;;;;;12.06;100.00;99008.13;5073099;28;20044;-75
2023/03/10 08:00:13;;;;;;;7.90;1.27;;;;;;;12.16;100.00;98998.19;5073614;28;20144;-74
2023/03/10 08:02:39;;;;;;;8.18;1.30;;;;;;;12.26;100.00;98992.63;5066229;28;20430;-74
2023/03/10 08:05:05;;;;;;;10.88;1.92;;;;;;;12.35;100.00;98990.66;5045485;28;20135;-74
2023/03/10 08:07:30;;;;;;;11.30;1.70;;;;;;;12.46;100.00;98990.91;5074600;28;20484;-74
2023/03/10 08:09:56;;;;;;;11.75;1.08;;;;;;;12.54;100.00;98979.50;5063153;28;20044;-72
2023/03/10 08:12:22;;;;;;;8.27;1.10;;;;;;;12.59;100.00;98969.28;5063453;28;20024;-72
2023/03/10 08:14:49;;;;;;;8.50;1.50;;;;;;;12.65;100.00;98976.38;5069168;28;20484;-73
2023/03/10 08:17:14;;;;;;;10.23;1.05;;;;;;;13.01;100.00;98981.31;5067517;28;20041;-71
2023/03/10 08:19:40;;;;;;;10.23;0.93;;;;;;;13.30;100.00;98980.22;5028106;28;20476;-71
2023/03/10 08:22:05;;;;;;;10.52;1.23;;;;;;;13.49;100.00;98982.09;5060514;28;20392;-71
2023/03/10 08:24:31;;;;;;;7.50;0.95;;;;;;;13.64;100.00;98979.28;5072720;28;20066;-71
2023/03/10 08:26:56;;;;;;;12.18;1.40;;;;;;;13.65;100.00;98980.91;5069239;28;20032;-71
2023/03/10 08:29:22;;;;;;;9.52;1.00;;;;;;;13.73;100.00;98977.25;5073046;28;20028;-71
2023/03/10 08:31:48;;;;;;;5.70;0.75;;;;;;;13.86;100.00;98972.84;5067624;28;20037;-71
2023/03/10 08:34:15;;;;;;;6.20;0.98;;;;;;;13.83;100.00;98975.06;5050838;28;20032;-71
2023/03/10 08:36:41;;;;;;;12.27;1.30;;;;;;;13.89;100.00;98971.63;5055797;28;20045;-71
2023/03/10 08:39:07;;;;;;;8.48;0.85;;;;;;;13.70;100.00;98973.25;5032839;28;20131;-71
2023/03/10 08:41:45;;;;;;;7.32;0.85;;;;;;;13.49;100.00;98968.19;5055892;28;20033;-71
2023/03/10 08:44:14;;;;;;;3.85;0.77;;;;;;;13.33;100.00;98964.13;5057257;28;20032;-71
2023/03/10 08:46:40;;;;;;;8.48;0.90;;;;;;;13.29;100.00;98962.91;5047063;28;20123;-71
2023/03/10 08:49:06;;;;;;;7.03;0.77;;;;;;;13.24;100.00;98966.13;5059188;28;20086;-71
2023/03/10 08:51:31;;;;;;;4.97;0.85;;;;;;;13.25;100.00;98966.94;5037422;28;20041;-71
2023/03/10 08:53:57;;;;;;;8.07;1.15;;;;;;;13.31;100.00;98963.53;5056060;28;20047;-72
2023/03/10 08:56:23;;;;;;;8.20;1.10;;;;;;;13.28;100.00;98956.06;5072464;28;20480;-72
2023/03/10 08:58:49;;;;;;;10.35;0.93;;;;;;;13.39;100.00;98952.88;5054092;28;20037;-71
2023/03/10 09:01:16;;;;;;;9.40;2.38;;;;;;;13.33;100.00;98948.44;5057491;28;20041;-71
2023/03/10 09:03:43;;;;;;;9.85;2.00;;;;;;;13.32;100.00;98944.22;5068814;28;20033;-72
2023/03/10 09:06:09;;;;;;;8.68;2.42;;;;;;;14.26;97.47;98944.78;5052568;28;20046;-71
2023/03/10 09:08:34;;;;;;;5.43;1.13;;;;;;;14.32;97.00;98937.91;5058190;28;20029;-69
2023/03/10 09:11:00;;;;;;;6.78;0.65;;;;;;;14.11;98.75;98940.81;5062666;28;20060;-71
2023/03/10 09:13:26;;;;;;;6.43;0.75;;;;;;;14.11;98.70;98941.59;5062718;28;20071;-71
2023/03/10 09:15:52;;;;;;;15.32;1.20;;;;;;;14.07;99.13;98940.41;5049965;28;20056;-72
2023/03/10 09:18:18;;;;;;;8.60;0.80;;;;;;;13.95;100.00;98937.59;5050843;28;20048;-72
2023/03/10 09:20:44;;;;;;;8.63;1.00;;;;;;;13.89;100.00;98930.53;5051593;28;20131;-71
2023/03/10 09:23:11;;;;;;;8.07;1.02;;;;;;;13.87;100.00;98929.13;5052147;28;20024;-71
2023/03/10 09:25:39;;;;;;;11.38;1.10;;;;;;;13.85;100.00;98924.09;5032583;28;20481;-71
2023/03/10 09:28:06;;;;;;;8.30;1.40;;;;;;;13.73;100.00;98930.13;5059494;28;20087;-72
2023/03/10 09:30:36;;;;;;;9.77;2.90;;;;;;;13.58;100.00;98927.75;5049367;28;20028;-72
2023/03/10 09:33:06;;;;;;;6.15;1.52;;;;;;;13.42;100.00;98910.63;5051364;28;20105;-71
2023/03/10 09:35:32;;;;;;;10.30;4.07;;;;;;;13.42;100.00;98918.47;5045016;28;20092;-71
2023/03/10 09:37:57;;;;;;;9.55;2.17;;;;;;;13.46;100.00;98911.03;5049010;28;20037;-71
2023/03/10 09:40:24;;;;;;;7.75;2.13;;;;;;;13.58;100.00;98915.47;5050655;28;20112;-72
2023/03/10 09:42:58;;;;;;;9.27;2.20;;;;;;;13.87;100.00;98913.44;5058789;28;20518;-72
2023/03/10 09:45:59;;;;;;;7.63;1.17;;;;;;;14.06;97.53;98902.13;5065421;28;20044;-72
2023/03/10 09:48:31;;;;;;;10.50;1.30;;;;;;;14.22;98.18;98900.88;5046438;28;20029;-71
2023/03/10 09:50:58;;;;;;;10.57;1.40;;;;;;;14.68;97.66;98905.97;5050399;28;20040;-71
2023/03/10 09:53:32;;;;;;;4.53;0.70;;;;;;;14.77;96.54;98899.47;5040948;28;20495;-72
2023/03/10 09:55:58;;;;;;;7.72;1.10;;;;;;;14.77;97.30;98894.22;5070494;28;20032;-72
2023/03/10 09:58:41;;;;;;;11.43;1.10;;;;;;;14.64;93.47;98894.31;5071217;28;20491;-72
2023/03/10 10:01:14;;;;;;;5.60;1.05;;;;;;;14.59;96.95;98886.28;5065029;28;20153;-72
2023/03/10 10:03:50;;;;;;;6.30;1.55;;;;;;;14.63;97.38;98884.03;5049446;28;20029;-72
2023/03/10 10:06:21;;;;;;;9.93;1.27;;;;;;;14.45;96.94;98882.09;5047609;28;20067;-72
2023/03/10 10:08:57;;;;;;;11.52;1.52;;;;;;;14.28;94.89;98876.47;5025419;28;20459;-72
2023/03/10 10:11:22;;;;;;;11.95;1.20;;;;;;;14.21;97.99;98875.69;5053662;28;20035;-71
2023/03/10 10:13:50;;;;;;;10.52;1.83;;;;;;;14.17;99.10;98877.94;5040795;28;20025;-72
2023/03/10 10:16:42;;;;;;;9.00;0.93;;;;;;;14.16;97.87;98876.31;5040271;28;20022;-72
2023/03/10 10:19:18;;;;;;;7.82;1.05;;;;;;;14.16;100.00;98875.53;5039725;28;20128;-72
2023/03/10 10:21:57;;;;;;;6.57;0.93;;;;;;;14.24;99.76;98870.03;5043486;28;20432;-72
2023/03/10 10:24:23;;;;;;;8.38;0.70;;;;;;;14.37;99.74;98867.38;5040972;28;20029;-73
2023/03/10 10:26:48;;;;;;;4.07;0.88;;;;;;;14.46;99.53;98860.13;5053332;28;20476;-73
2023/03/10 10:29:17;;;;;;;7.45;1.10;;;;;;;14.69;98.55;98851.72;5050463;28;20040;-72
2023/03/10 10:32:02;;;;;;;5.80;0.75;;;;;;;14.97;95.47;98846.94;5050517;28;20110;-73
2023/03/10 10:34:27;;;;;;;6.32;1.15;;;;;;;15.17;96.93;98846.78;5056290;28;20029;-72
2023/03/10 10:36:55;;;;;;;6.68;1.10;;;;;;;15.19;96.31;98845.53;5048883;28;20028;-72
2023/03/10 10:39:30;;;;;;;7.85;0.82;;;;;;;15.11;94.34;98831.91;5047225;28;20378;-72
2023/03/10 10:42:16;;;;;;;10.95;1.30;;;;;;;15.17;93.96;98841.53;5059166;28;20514;-72
2023/03/10 10:44:43;;;;;;;7.85;1.30;;;;;;;15.31;94.95;98832.53;5058255;28;20534;-72
2023/03/10 10:47:33;;;;;;;7.22;1.17;;;;;;;15.20;90.66;98835.84;5042278;28;20068;-72
2023/03/10 10:50:16;;;;;;;10.60;1.23;;;;;;;15.13;89.87;98835.09;5045768;28;20029;-71
2023/03/10 10:52:45;;;;;;;12.63;1.13;;;;;;;15.08;93.48;98834.97;5053035;28;20080;-71
2023/03/10 10:55:34;;;;;;;9.93;1.08;;;;;;;14.98;89.50;98835.44;5043082;28;20483;-72
2023/03/10 10:58:03;;;;;;;10.13;1.02;;;;;;;14.87;93.26;98836.09;5042871;28;20136;-71
2023/03/10 11:00:32;;;;;;;8.82;1.80;;;;;;;14.83;92.99;98840.97;5047614;28;20024;-71
2023/03/10 11:02:58;;;;;;;5.40;1.05;;;;;;;14.80;93.64;98843.19;5046548;28;20039;-72
2023/03/10 11:05:32;;;;;;;3.80;0.47;;;;;;;14.78;93.18;98832.13;5044800;28;20028;-72
2023/03/10 11:08:36;;;;;;;6.25;0.80;;;;;;;14.58;90.36;98840.13;5031404;28;20040;-72
2023/03/10 11:11:28;;;;;;;5.93;0.80;;;;;;;14.59;91.41;98842.53;5044538;28;20040;-72
2023/03/10 11:14:06;;;;;;;6.15;0.98;;;;;;;14.54;94.82;98842.34;5042810;28;20056;-71
2023/03/10 11:16:58;;;;;;;5.20;0.70;;;;;;;14.42;92.64;98833.53;5049513;28;20028;-72
2023/03/10 11:19:48;;;;;;;5.50;0.57;;;;;;;14.48;95.99;98824.84;5045075;28;20427;-72
2023/03/10 11:22:43;;;;;;;8.25;0.70;;;;;;;14.30;92.51;98824.69;5044497;28;20033;-71
2023/03/10 11:25:15;;;;;;;9.38;0.80;;;;;;;14.11;96.26;98820.34;5034003;28;20029;-71
2023/03/10 11:27:49;;;;;;;8.07;0.80;;;;;;;14.03;97.12;98812.72;5043889;28;20094;-71